Time;durP1;ratioP1;P1;durP2;ratioP2;P2;SDS_P1;SDS_P2;PMS_P1;PMS_P2;Temp;Humidity;BMP_temperature;BMP_pressure;BME280_temperature;BME280_humidity;BME280_pressure;Samples;Min_cycle;Max_cycle;Signal;HPM_P1;HPM_P2
2023/08/02 00:00:47;;;;;;;10.00;9.18;;;;;;;24.60;70.83;97478.94;5111394;28;20274;-56
2023/08/02 00:03:13;;;;;;;9.23;8.32;;;;;;;24.43;70.38;97440.81;5111093;28;20195;-56
2023/08/02 00:05:39;;;;;;;9.90;9.00;;;;;;;24.49;70.73;97464.56;5110899;28;20249;-56
2023/08/02 00:08:04;;;;;;;8.60;7.88;;;;;;;24.62;69.68;97472.41;5111044;28;20215;-56
2023/08/02 00:10:29;;;;;;;9.20;8.40;;;;;;;24.50;70.43;97470.69;5111005;28;20190;-57
2023/08/02 00:12:55;;;;;;;9.23;8.43;;;;;;;24.35;69.27;97430.50;5110927;28;20211;-56
2023/08/02 00:15:21;;;;;;;9.15;8.25;;;;;;;24.32;70.49;97449.44;5111263;28;20179;-56
2023/08/02 00:17:47;;;;;;;9.45;8.55;;;;;;;24.24;70.91;97455.81;5110978;28;20403;-55
2023/08/02 00:20:13;;;;;;;8.82;8.02;;;;;;;24.32;70.71;97465.31;5110969;28;20235;-56
2023/08/02 00:22:39;;;;;;;8.90;8.10;;;;;;;24.24;70.60;97426.72;5110746;28;20768;-57
2023/08/02 00:25:05;;;;;;;8.65;7.88;;;;;;;24.44;69.72;97453.03;5110851;28;20171;-56
2023/08/02 00:27:30;;;;;;;9.30;8.50;;;;;;;24.49;69.93;97451.34;5110701;28;20304;-56
2023/08/02 00:29:56;;;;;;;12.98;10.10;;;;;;;24.63;71.47;97442.31;5110586;28;20682;-56
2023/08/02 00:32:21;;;;;;;11.75;9.48;;;;;;;24.71;71.07;97444.69;5110877;28;20266;-56
2023/08/02 00:34:49;;;;;;;10.57;9.57;;;;;;;24.65;72.30;97458.78;5110630;28;20214;-56
2023/08/02 00:37:14;;;;;;;11.23;10.20;;;;;;;24.17;74.98;97456.06;5112683;28;20293;-56
2023/08/02 00:39:40;;;;;;;11.77;10.77;;;;;;;24.24;75.03;97463.72;5113008;28;20213;-56
2023/08/02 00:42:05;;;;;;;12.70;11.43;;;;;;;24.30;76.17;97489.31;5112498;28;20257;-56
2023/08/02 00:44:31;;;;;;;11.85;10.73;;;;;;;24.13;76.27;97467.06;5112873;28;20175;-56
2023/08/02 00:46:56;;;;;;;12.63;11.52;;;;;;;24.17;75.84;97464.00;5112850;28;20724;-56
2023/08/02 00:49:22;;;;;;;12.40;11.30;;;;;;;24.02;77.03;97469.56;5112773;28;20171;-56
2023/08/02 00:51:47;;;;;;;12.35;11.23;;;;;;;23.80;78.93;97479.59;5112746;28;20536;-57
2023/08/02 00:54:13;;;;;;;11.60;10.45;;;;;;;23.95;77.17;97462.69;5112319;28;20194;-56
2023/08/02 00:56:39;;;;;;;11.95;10.75;;;;;;;23.95;77.96;97483.84;5112917;28;20175;-56
2023/08/02 00:59:04;;;;;;;11.93;10.25;;;;;;;23.86;78.07;97475.31;5112557;28;20654;-56
2023/08/02 01:01:30;;;;;;;12.02;10.73;;;;;;;23.66;78.35;97452.63;5109700;28;20296;-56
2023/08/02 01:03:56;;;;;;;8.57;7.78;;;;;;;23.98;73.97;97473.66;5110184;28;20278;-55
2023/08/02 01:06:31;;;;;;;8.98;8.07;;;;;;;24.26;71.64;97489.97;5109666;28;20278;-57
2023/08/02 01:09:07;;;;;;;10.20;9.18;;;;;;;24.08;72.06;97458.94;5109965;28;20175;-56
2023/08/02 01:11:42;;;;;;;9.48;8.45;;;;;;;24.27;73.39;97495.03;5109853;28;20263;-57
2023/08/02 01:14:12;;;;;;;9.70;8.82;;;;;;;24.12;73.40;97474.38;5109746;28;20234;-56
2023/08/02 01:16:39;;;;;;;10.27;9.25;;;;;;;24.35;73.10;97505.34;5109792;28;20193;-56
2023/08/02 01:19:10;;;;;;;10.52;8.70;;;;;;;24.09;73.62;97496.78;5109606;28;20167;-57
2023/08/02 01:21:35;;;;;;;8.95;8.13;;;;;;;24.01;73.99;97490.91;5109638;28;20658;-57
2023/08/02 01:24:01;;;;;;;9.43;8.52;;;;;;;23.85;75.84;97500.91;5109556;28;20331;-55
2023/08/02 01:26:31;;;;;;;12.05;9.55;;;;;;;23.49;77.41;97472.63;5109688;28;20781;-56
2023/08/02 01:29:01;;;;;;;10.18;9.27;;;;;;;23.38;78.69;97481.19;5109540;28;20167;-56
2023/08/02 01:31:28;;;;;;;10.80;9.82;;;;;;;23.08;81.08;97474.72;5109586;28;20175;-59
2023/08/02 01:33:56;;;;;;;12.50;10.18;;;;;;;23.28;81.07;97496.63;5111538;28;20195;-56
2023/08/02 01:36:22;;;;;;;12.10;11.00;;;;;;;23.36;81.78;97501.72;5111520;28;20672;-56
2023/08/02 01:38:48;;;;;;;12.45;11.30;;;;;;;23.10;83.43;97477.94;5111830;28;20207;-56
2023/08/02 01:41:13;;;;;;;11.95;10.85;;;;;;;23.13;83.17;97488.13;5111819;28;20213;-56
2023/08/02 01:43:39;;;;;;;12.48;11.27;;;;;;;23.27;82.64;97495.00;5111719;28;20183;-56
2023/08/02 01:46:04;;;;;;;10.90;9.90;;;;;;;23.19;83.32;97488.13;5111642;28;20232;-56
2023/08/02 01:48:30;;;;;;;10.85;9.85;;;;;;;23.05;82.90;97470.66;5111617;28;20182;-56
2023/08/02 01:50:56;;;;;;;10.18;9.02;;;;;;;23.07;83.33;97488.94;5111330;28;20171;-56
2023/08/02 01:53:21;;;;;;;10.77;9.77;;;;;;;23.18;83.47;97519.97;5111209;28;20289;-56
2023/08/02 01:55:47;;;;;;;14.05;9.60;;;;;;;23.08;84.40;97516.94;5111396;28;20267;-56
2023/08/02 01:58:12;;;;;;;16.27;10.23;;;;;;;22.87;85.31;97502.13;5111547;28;20186;-56
2023/08/02 02:00:37;;;;;;;10.48;9.30;;;;;;;22.93;85.20;97508.41;5111217;28;20175;-57
2023/08/02 02:03:03;;;;;;;11.50;10.50;;;;;;;23.04;84.35;97513.09;5111421;28;20171;-56
2023/08/02 02:05:28;;;;;;;10.90;9.90;;;;;;;22.92;85.62;97517.34;5111423;28;20171;-56
2023/08/02 02:07:54;;;;;;;8.75;7.95;;;;;;;23.12;81.52;97524.25;5111603;28;20182;-56
2023/08/02 02:10:19;;;;;;;10.55;9.38;;;;;;;23.18;81.47;97504.97;5111332;28;20181;-55
2023/08/02 02:12:45;;;;;;;7.90;7.10;;;;;;;23.34;77.04;97522.19;5108573;28;20623;-56
2023/08/02 02:15:10;;;;;;;7.93;7.25;;;;;;;23.36;76.08;97518.34;5108845;28;20191;-57
2023/08/02 02:17:35;;;;;;;7.80;7.10;;;;;;;23.48;74.79;97513.25;5108777;28;20193;-57
2023/08/02 02:20:01;;;;;;;8.23;7.53;;;;;;;23.44;75.03;97502.28;5108757;28;20708;-57
2023/08/02 02:22:26;;;;;;;9.40;7.55;;;;;;;23.63;74.68;97521.72;5108756;28;20664;-57
2023/08/02 02:24:52;;;;;;;8.75;7.93;;;;;;;23.68;74.36;97510.31;5108694;28;20191;-57
2023/08/02 02:27:17;;;;;;;9.23;8.32;;;;;;;23.65;75.31;97509.13;5108680;28;20295;-57
2023/08/02 02:29:42;;;;;;;7.93;7.22;;;;;;;23.68;74.91;97509.53;5108633;28;20646;-57
2023/08/02 02:32:08;;;;;;;9.00;8.13;;;;;;;23.44;75.83;97485.63;5108638;28;20348;-55
2023/08/02 02:34:33;;;;;;;9.60;8.80;;;;;;;23.37;76.40;97490.13;5108514;28;20215;-56
2023/08/02 02:36:59;;;;;;;9.20;8.40;;;;;;;23.62;76.79;97520.94;5108619;28;20579;-56
2023/08/02 02:39:25;;;;;;;9.52;8.63;;;;;;;23.72;76.54;97531.06;5108632;28;20204;-56
2023/08/02 02:41:50;;;;;;;11.27;8.45;;;;;;;23.83;76.27;97532.03;5108572;28;20203;-56
2023/08/02 02:44:15;;;;;;;10.00;9.05;;;;;;;23.78;76.49;97523.91;5108491;28;20187;-56
2023/08/02 02:46:41;;;;;;;10.80;9.73;;;;;;;23.89;76.21;97542.81;5108593;28;20240;-56
2023/08/02 02:49:06;;;;;;;9.63;8.82;;;;;;;23.75;76.84;97542.81;5108574;28;20187;-56
2023/08/02 02:51:32;;;;;;;11.32;9.98;;;;;;;23.45;80.03;97559.38;5110948;28;20175;-56
2023/08/02 02:53:57;;;;;;;11.07;10.05;;;;;;;23.22;81.03;97522.03;5110846;28;20293;-56
2023/08/02 02:56:22;;;;;;;12.55;11.30;;;;;;;23.48;80.33;97544.94;5111221;28;20171;-56
2023/08/02 02:58:48;;;;;;;11.60;10.40;;;;;;;23.03;82.64;97528.13;5111192;28;20694;-56
2023/08/02 03:01:14;;;;;;;12.80;10.43;;;;;;;23.20;82.66;97557.56;5110944;28;20188;-56
2023/08/02 03:03:39;;;;;;;11.98;10.65;;;;;;;23.20;83.47;97579.47;5110827;28;20183;-56
2023/08/02 03:06:05;;;;;;;11.32;10.23;;;;;;;22.94;84.88;97563.63;5113319;28;20201;-56
2023/08/02 03:08:30;;;;;;;12.68;10.23;;;;;;;22.55;86.45;97520.59;5114701;28;20658;-56
2023/08/02 03:10:56;;;;;;;11.63;10.52;;;;;;;22.63;87.40;97550.22;5114613;27;20209;-56
2023/08/02 03:13:21;;;;;;;11.70;10.40;;;;;;;22.86;85.96;97557.75;5114658;28;20288;-55
2023/08/02 03:15:48;;;;;;;10.48;9.57;;;;;;;22.80;85.42;97535.63;5114585;28;20542;-56
2023/08/02 03:18:13;;;;;;;10.45;9.55;;;;;;;22.47;86.41;97523.41;5114532;28;20190;-56
2023/08/02 03:20:39;;;;;;;11.63;10.52;;;;;;;22.33;88.44;97533.06;5114411;28;20642;-56
2023/08/02 03:23:05;;;;;;;11.23;9.98;;;;;;;22.59;87.77;97553.44;5114335;28;20220;-56
2023/08/02 03:25:30;;;;;;;14.02;10.23;;;;;;;22.58;87.27;97533.38;5114353;28;20235;-56
2023/08/02 03:27:56;;;;;;;13.23;10.43;;;;;;;22.83;85.93;97535.22;5114344;28;20173;-56
2023/08/02 03:30:21;;;;;;;10.77;9.45;;;;;;;23.00;82.95;97544.34;5114291;28;20175;-56
2023/08/02 03:32:47;;;;;;;10.45;8.88;;;;;;;23.02;81.71;97552.06;5114174;28;20165;-56
2023/08/02 03:35:12;;;;;;;9.13;8.23;;;;;;;23.09;81.41;97558.16;5114181;28;20167;-56
2023/08/02 03:37:38;;;;;;;8.85;8.05;;;;;;;22.87;80.81;97515.34;5114128;28;20338;-56
2023/08/02 03:40:03;;;;;;;7.32;6.63;;;;;;;23.24;79.61;97564.06;5114127;28;20606;-56
2023/08/02 03:42:29;;;;;;;7.82;7.13;;;;;;;23.25;77.82;97553.28;5114047;28;20178;-55
2023/08/02 03:44:54;;;;;;;8.50;7.22;;;;;;;23.19;78.13;97545.38;5113996;28;20179;-56
2023/08/02 03:47:19;;;;;;;7.80;7.10;;;;;;;23.38;77.64;97560.38;5114009;28;20172;-55
2023/08/02 03:49:45;;;;;;;9.32;8.43;;;;;;;23.48;77.74;97568.72;5113852;28;20207;-56
2023/08/02 03:52:10;;;;;;;8.50;7.70;;;;;;;23.39;77.73;97535.59;5113979;28;20193;-56
2023/08/02 03:54:36;;;;;;;8.82;8.02;;;;;;;23.11;79.61;97529.72;5113727;28;20235;-56
2023/08/02 03:57:01;;;;;;;8.63;7.82;;;;;;;23.24;79.52;97548.22;5113827;28;20167;-56
2023/08/02 03:59:26;;;;;;;8.93;8.13;;;;;;;23.29;79.19;97546.59;5113812;28;20625;-56
2023/08/02 04:01:52;;;;;;;14.23;8.38;;;;;;;23.28;80.26;97549.44;5113787;28;20190;-56
2023/08/02 04:04:17;;;;;;;9.43;8.57;;;;;;;23.42;81.55;97572.16;5113710;28;20183;-56
2023/08/02 04:06:43;;;;;;;9.48;8.57;;;;;;;23.50;81.13;97579.88;5113308;28;20184;-56
2023/08/02 04:09:08;;;;;;;9.40;8.50;;;;;;;23.32;81.89;97555.94;5113616;28;20182;-56
2023/08/02 04:11:33;;;;;;;8.63;7.75;;;;;;;23.19;82.38;97529.56;5113834;28;20182;-56
2023/08/02 04:13:59;;;;;;;8.63;7.93;;;;;;;23.48;81.74;97568.72;5113060;28;20699;-56
2023/08/02 04:16:24;;;;;;;10.48;7.60;;;;;;;23.61;77.05;97556.25;5112854;28;20179;-56
2023/08/02 04:18:50;;;;;;;8.13;6.32;;;;;;;23.65;73.94;97552.19;5113282;28;20175;-56
2023/08/02 04:21:19;;;;;;;7.65;7.00;;;;;;;23.63;72.30;97541.03;5113313;28;20171;-56
2023/08/02 04:23:45;;;;;;;7.88;6.55;;;;;;;23.73;71.43;97532.66;5113246;28;20668;-56
2023/08/02 04:26:11;;;;;;;6.28;5.78;;;;;;;23.85;70.32;97537.09;5113180;28;20179;-55
2023/08/02 04:28:36;;;;;;;6.70;6.13;;;;;;;23.89;69.74;97542.81;5113154;28;20183;-55
2023/08/02 04:31:02;;;;;;;6.82;6.25;;;;;;;24.13;69.43;97567.50;5113117;28;20530;-56
2023/08/02 04:33:28;;;;;;;6.22;5.72;;;;;;;24.19;68.70;97571.13;5112738;28;20214;-56
2023/08/02 04:35:53;;;;;;;6.90;6.40;;;;;;;24.09;69.32;97558.38;5112808;28;20213;-56
2023/08/02 04:38:18;;;;;;;7.35;6.75;;;;;;;23.94;69.68;97538.50;5112688;28;20681;-56
2023/08/02 04:40:45;;;;;;;7.32;6.47;;;;;;;24.24;69.75;97564.19;5112921;28;20216;-56
2023/08/02 04:43:11;;;;;;;11.45;7.18;;;;;;;24.25;69.34;97559.72;5112939;28;20174;-56
2023/08/02 04:45:36;;;;;;;6.28;5.78;;;;;;;24.44;68.45;97570.19;5112879;28;20706;-56
2023/08/02 04:48:02;;;;;;;6.50;5.90;;;;;;;24.49;68.03;97562.44;5112524;28;20186;-56
2023/08/02 04:50:27;;;;;;;6.90;6.30;;;;;;;24.64;67.76;97576.22;5112555;28;20232;-56
2023/08/02 04:52:52;;;;;;;7.53;6.85;;;;;;;24.65;67.49;97583.13;5112505;28;20182;-56
2023/08/02 04:55:18;;;;;;;7.43;6.78;;;;;;;24.65;67.14;97569.91;5112632;28;20167;-56
2023/08/02 04:57:43;;;;;;;6.95;6.35;;;;;;;24.78;67.08;97572.44;5112583;27;20555;-56
2023/08/02 05:00:09;;;;;;;8.82;6.50;;;;;;;24.74;67.31;97571.25;5112306;28;20198;-56
2023/08/02 05:02:36;;;;;;;6.80;6.20;;;;;;;24.77;66.39;97572.66;5112167;28;20258;-56
2023/08/02 05:05:02;;;;;;;7.05;6.40;;;;;;;24.70;66.45;97551.56;5112377;28;20175;-56
2023/08/02 05:07:32;;;;;;;7.53;6.88;;;;;;;24.86;66.40;97568.75;5112259;28;20187;-57
2023/08/02 05:09:59;;;;;;;7.00;6.40;;;;;;;24.76;65.83;97541.94;5112339;28;20171;-56
2023/08/02 05:12:24;;;;;;;6.78;6.28;;;;;;;24.76;65.19;97537.47;5112288;28;20177;-56
2023/08/02 05:14:50;;;;;;;6.82;6.15;;;;;;;24.96;65.18;97572.50;5111897;28;20198;-56
2023/08/02 05:17:15;;;;;;;6.82;6.03;;;;;;;24.86;64.46;97539.63;5112339;28;20172;-56
2023/08/02 05:19:41;;;;;;;6.57;6.07;;;;;;;24.85;64.71;97546.75;5112123;28;20179;-56
2023/08/02 05:22:06;;;;;;;6.63;5.93;;;;;;;25.04;65.16;97577.56;5112193;28;20651;-56
2023/08/02 05:24:31;;;;;;;6.35;5.75;;;;;;;25.09;64.84;97567.09;5112149;28;20194;-56
2023/08/02 05:26:57;;;;;;;7.38;6.63;;;;;;;25.08;65.56;97573.44;5112308;28;20555;-56
2023/08/02 05:29:22;;;;;;;6.78;6.18;;;;;;;25.01;64.46;97543.56;5111091;28;20170;-55
2023/08/02 05:31:48;;;;;;;7.05;6.35;;;;;;;25.30;64.24;97565.97;5111907;28;20171;-55
2023/08/02 05:34:13;;;;;;;6.72;6.15;;;;;;;25.38;63.79;97547.13;5111876;28;20198;-55
2023/08/02 05:36:38;;;;;;;7.45;6.72;;;;;;;25.52;63.36;97557.38;5111560;28;20171;-55
2023/08/02 05:39:04;;;;;;;8.13;7.35;;;;;;;25.74;64.50;97558.59;5111743;28;20271;-55
2023/08/02 05:41:29;;;;;;;14.05;8.75;;;;;;;25.83;65.36;97551.94;5111694;28;20593;-56
2023/08/02 05:43:55;;;;;;;14.55;9.18;;;;;;;26.20;66.35;97589.88;5111717;28;20182;-55
2023/08/02 05:46:20;;;;;;;11.60;9.00;;;;;;;26.13;66.25;97571.38;5111736;28;20676;-56
2023/08/02 05:48:45;;;;;;;14.63;9.15;;;;;;;26.18;65.96;97568.88;5111792;28;20178;-55
2023/08/02 05:51:11;;;;;;;13.38;8.93;;;;;;;26.34;65.68;97580.72;5111669;28;20273;-56
2023/08/02 05:53:37;;;;;;;10.00;9.10;;;;;;;26.48;65.29;97590.94;5111502;28;20210;-56
2023/08/02 05:56:02;;;;;;;9.77;8.15;;;;;;;26.54;65.39;97590.06;5111591;28;20725;-55
2023/08/02 05:58:28;;;;;;;17.58;9.40;;;;;;;26.56;65.40;97588.00;5111783;28;20167;-55
2023/08/02 06:00:53;;;;;;;9.75;8.95;;;;;;;26.77;65.46;97603.41;5111475;28;20167;-56
2023/08/02 06:03:18;;;;;;;12.90;9.10;;;;;;;26.72;65.30;97582.06;5111533;28;20185;-55
2023/08/02 06:05:44;;;;;;;9.57;8.68;;;;;;;26.79;64.18;97580.13;5111198;28;20262;-56
2023/08/02 06:08:09;;;;;;;9.02;8.13;;;;;;;27.00;64.31;97603.47;5111236;28;20257;-56
2023/08/02 06:10:35;;;;;;;11.40;8.25;;;;;;;26.84;63.96;97582.09;5111339;28;20191;-56
2023/08/02 06:13:00;;;;;;;10.18;9.18;;;;;;;26.89;63.74;97600.81;5111050;28;20171;-55
2023/08/02 06:15:25;;;;;;;10.02;9.13;;;;;;;26.93;63.96;97594.81;5111377;28;20171;-55
2023/08/02 06:17:51;;;;;;;9.05;8.25;;;;;;;27.05;63.20;97608.13;5108595;28;20194;-55
2023/08/02 06:20:16;;;;;;;10.57;9.05;;;;;;;26.90;63.44;97578.53;5108704;28;20216;-55
2023/08/02 06:22:42;;;;;;;9.55;8.45;;;;;;;27.02;63.46;97587.31;5108984;28;20198;-55
2023/08/02 06:25:08;;;;;;;10.07;9.18;;;;;;;27.23;63.63;97603.56;5108728;28;20642;-56
2023/08/02 06:27:34;;;;;;;9.80;9.00;;;;;;;27.18;63.28;97584.84;5108723;28;20220;-55
2023/08/02 06:30:00;;;;;;;9.18;8.32;;;;;;;27.47;63.13;97613.16;5108615;28;20233;-55
2023/08/02 06:32:26;;;;;;;9.90;8.77;;;;;;;27.60;62.93;97617.44;5108626;28;20197;-55
2023/08/02 06:34:51;;;;;;;9.35;8.45;;;;;;;27.57;62.36;97594.00;5108616;28;20203;-56
2023/08/02 06:37:17;;;;;;;9.98;9.02;;;;;;;27.64;61.65;97574.22;5108754;28;20214;-55
2023/08/02 06:39:42;;;;;;;10.52;9.05;;;;;;;27.74;61.24;97579.75;5108972;28;20182;-56
2023/08/02 06:42:07;;;;;;;12.40;9.02;;;;;;;27.78;61.74;97586.28;5112678;28;20551;-56
2023/08/02 06:44:33;;;;;;;11.10;9.15;;;;;;;28.01;61.21;97607.50;5112565;28;20699;-55
2023/08/02 06:46:58;;;;;;;10.55;9.35;;;;;;;28.02;61.35;97593.16;5092171;28;20199;-56
2023/08/02 06:49:24;;;;;;;10.93;9.80;;;;;;;28.16;60.54;97615.78;5107210;28;20622;-56
2023/08/02 06:51:49;;;;;;;14.65;9.52;;;;;;;27.99;60.86;97579.53;5112508;28;20226;-56
2023/08/02 06:54:14;;;;;;;11.05;9.13;;;;;;;28.07;60.48;97590.63;5112525;28;20657;-57
2023/08/02 06:56:40;;;;;;;10.88;8.77;;;;;;;28.20;59.79;97611.63;5112379;28;20274;-57
2023/08/02 06:59:05;;;;;;;10.45;9.45;;;;;;;28.07;59.82;97595.94;5112395;28;20175;-57
2023/08/02 07:01:31;;;;;;;9.95;8.95;;;;;;;28.10;59.59;97599.97;5112198;28;20179;-57
2023/08/02 07:03:56;;;;;;;10.52;9.43;;;;;;;28.16;59.83;97610.47;5112246;28;20179;-57
2023/08/02 07:06:21;;;;;;;11.45;10.25;;;;;;;28.07;59.99;97622.53;5112004;28;20199;-57
2023/08/02 07:08:47;;;;;;;12.43;10.18;;;;;;;28.01;60.18;97601.38;5112264;28;20261;-56
2023/08/02 07:11:13;;;;;;;11.20;10.02;;;;;;;27.95;58.87;97587.19;5112229;28;20262;-56
2023/08/02 07:13:42;;;;;;;12.25;10.38;;;;;;;28.09;58.93;97612.47;5112153;28;20375;-57
2023/08/02 07:16:07;;;;;;;12.85;9.90;;;;;;;28.02;58.68;97598.50;5112418;28;20564;-56
2023/08/02 07:18:33;;;;;;;11.55;10.35;;;;;;;28.03;59.26;97599.28;5113766;28;20190;-56
2023/08/02 07:21:05;;;;;;;11.90;10.32;;;;;;;28.33;58.63;97621.22;5114609;28;20179;-57
2023/08/02 07:23:30;;;;;;;11.00;9.75;;;;;;;28.25;57.72;97593.09;5114325;28;20191;-56
2023/08/02 07:25:56;;;;;;;11.75;10.18;;;;;;;28.46;57.73;97620.97;5114135;28;20220;-56
2023/08/02 07:28:22;;;;;;;11.55;10.45;;;;;;;28.39;57.52;97591.81;5114119;28;20172;-56
2023/08/02 07:30:47;;;;;;;10.68;9.57;;;;;;;28.44;57.06;97599.91;5114021;28;20230;-56
2023/08/02 07:33:13;;;;;;;9.95;8.85;;;;;;;28.41;57.56;97618.19;5113961;28;20202;-56
2023/08/02 07:35:38;;;;;;;10.68;9.70;;;;;;;28.20;57.96;97606.31;5114237;28;20262;-56
2023/08/02 07:38:04;;;;;;;11.82;10.07;;;;;;;28.07;58.78;97593.28;5114133;28;20710;-56
2023/08/02 07:40:29;;;;;;;12.90;9.80;;;;;;;28.17;59.42;97605.97;5114137;28;20168;-56
2023/08/02 07:42:54;;;;;;;14.15;9.68;;;;;;;28.15;58.58;97608.84;5114035;28;20191;-56
2023/08/02 07:45:20;;;;;;;10.98;9.82;;;;;;;27.97;58.32;97574.44;5114046;28;20546;-56
2023/08/02 07:47:45;;;;;;;10.63;9.50;;;;;;;28.26;58.21;97593.91;5114033;28;20175;-56
2023/08/02 07:50:12;;;;;;;11.63;9.77;;;;;;;28.16;58.14;97583.88;5114018;28;20175;-56
2023/08/02 07:52:37;;;;;;;11.70;9.98;;;;;;;28.45;57.47;97608.69;5112847;28;20186;-55
2023/08/02 07:55:03;;;;;;;10.13;9.32;;;;;;;28.37;56.38;97587.75;5113777;28;20195;-56
2023/08/02 07:57:34;;;;;;;13.65;9.80;;;;;;;28.46;56.55;97597.00;5113756;28;20179;-56
2023/08/02 08:00:00;;;;;;;13.18;10.15;;;;;;;28.56;56.34;97591.88;5113826;27;20254;-56
2023/08/02 08:02:26;;;;;;;12.77;10.20;;;;;;;28.67;55.66;97612.28;5113719;28;20248;-56
2023/08/02 08:04:52;;;;;;;10.75;9.57;;;;;;;28.56;56.27;97595.34;5113758;27;20167;-56
2023/08/02 08:07:17;;;;;;;10.63;9.57;;;;;;;28.66;56.63;97578.72;5113696;28;20255;-55
2023/08/02 08:09:43;;;;;;;12.77;9.75;;;;;;;28.65;55.50;97580.59;5113564;27;20605;-56
2023/08/02 08:12:09;;;;;;;11.70;10.48;;;;;;;28.71;55.94;97571.66;5113530;28;20308;-56
2023/08/02 08:14:34;;;;;;;12.15;8.57;;;;;;;28.82;55.47;97596.59;5113427;28;20203;-56
2023/08/02 08:17:00;;;;;;;9.75;8.68;;;;;;;28.93;54.86;97609.06;5113530;27;20187;-56
2023/08/02 08:19:27;;;;;;;11.13;9.68;;;;;;;28.90;55.75;97606.84;5113450;27;20218;-56
2023/08/02 08:21:53;;;;;;;9.88;8.95;;;;;;;29.03;56.05;97614.59;5110572;28;20211;-56
2023/08/02 08:24:18;;;;;;;13.48;8.95;;;;;;;29.01;56.11;97593.53;5110826;28;20183;-56
2023/08/02 08:26:44;;;;;;;10.00;9.00;;;;;;;28.89;54.39;97581.28;5110726;28;20191;-56
2023/08/02 08:29:09;;;;;;;10.48;9.13;;;;;;;29.00;54.88;97588.44;5110716;28;20811;-56
2023/08/02 08:31:35;;;;;;;10.02;9.05;;;;;;;29.13;55.50;97610.25;5090036;28;20200;-55
2023/08/02 08:34:01;;;;;;;12.68;9.70;;;;;;;29.25;54.73;97610.16;5090254;28;20211;-56
2023/08/02 08:36:29;;;;;;;9.32;8.48;;;;;;;29.38;53.83;97607.97;5090053;28;20223;-56
2023/08/02 08:38:54;;;;;;;12.00;9.02;;;;;;;29.08;54.19;97572.03;5090021;28;20278;-56
2023/08/02 08:41:21;;;;;;;11.00;9.82;;;;;;;29.10;54.33;97573.41;5089971;28;20270;-56
2023/08/02 08:43:46;;;;;;;11.70;9.95;;;;;;;29.17;54.77;97586.59;5090071;28;20200;-56
2023/08/02 08:46:12;;;;;;;11.30;9.90;;;;;;;29.24;54.99;97574.72;5089992;28;20238;-56
2023/08/02 08:48:38;;;;;;;14.23;9.93;;;;;;;29.32;54.01;97568.97;5089323;28;20753;-56
2023/08/02 08:51:05;;;;;;;27.67;11.65;;;;;;;29.44;54.73;97593.66;5089816;28;20264;-56
2023/08/02 08:53:32;;;;;;;15.23;9.70;;;;;;;29.22;53.45;97554.69;5105424;28;20214;-57
2023/08/02 08:55:59;;;;;;;12.05;9.50;;;;;;;29.27;53.54;97574.22;5110141;28;20182;-56
2023/08/02 08:58:25;;;;;;;13.70;10.02;;;;;;;29.32;54.09;97584.97;5110130;28;20267;-57
2023/08/02 09:00:53;;;;;;;13.07;9.55;;;;;;;29.47;53.13;97581.72;5110123;28;20183;-57
2023/08/02 09:03:20;;;;;;;11.75;9.20;;;;;;;29.41;53.09;97574.69;5111547;28;20187;-57
2023/08/02 09:05:45;;;;;;;14.55;9.82;;;;;;;29.64;54.08;97587.88;5112268;28;20175;-55
2023/08/02 09:08:11;;;;;;;13.25;10.15;;;;;;;29.53;53.16;97554.94;5112473;28;20213;-56
2023/08/02 09:10:38;;;;;;;10.95;9.95;;;;;;;29.74;53.18;97570.13;5112440;28;20649;-56
2023/08/02 09:13:03;;;;;;;12.88;9.68;;;;;;;29.90;52.38;97560.50;5112217;28;20167;-56
2023/08/02 09:15:28;;;;;;;12.60;9.20;;;;;;;30.21;51.28;97581.19;5112240;28;20618;-56
2023/08/02 09:17:55;;;;;;;12.15;9.52;;;;;;;30.14;50.68;97561.91;5112315;28;20167;-56
2023/08/02 09:20:26;;;;;;;13.35;9.73;;;;;;;30.11;50.93;97576.53;5112272;28;20275;-55
2023/08/02 09:22:52;;;;;;;10.48;9.13;;;;;;;30.28;50.17;97577.28;5112160;28;20185;-55
2023/08/02 09:25:29;;;;;;;10.50;9.05;;;;;;;30.41;50.15;97590.25;5112179;28;20186;-55
2023/08/02 09:28:00;;;;;;;12.60;9.18;;;;;;;30.52;49.48;97586.63;5112162;28;20175;-55
2023/08/02 09:30:31;;;;;;;13.75;9.13;;;;;;;30.50;49.74;97554.00;5112114;28;20179;-55
2023/08/02 09:33:08;;;;;;;10.23;9.23;;;;;;;30.73;48.79;97571.66;5111945;28;20180;-56
2023/08/02 09:35:55;;;;;;;9.77;8.45;;;;;;;30.85;48.38;97577.63;5112202;28;20213;-55
2023/08/02 09:38:21;;;;;;;13.02;9.73;;;;;;;30.90;48.34;97569.66;5112242;28;20171;-55
2023/08/02 09:40:49;;;;;;;10.73;9.07;;;;;;;31.00;48.28;97580.44;5111849;28;20175;-57
2023/08/02 09:43:15;;;;;;;11.15;9.48;;;;;;;31.02;47.56;97555.06;5111760;28;20167;-56
2023/08/02 09:45:41;;;;;;;11.60;9.73;;;;;;;31.16;46.96;97566.13;5111702;27;20191;-57
2023/08/02 09:48:06;;;;;;;10.50;9.02;;;;;;;31.15;47.02;97565.34;5111811;28;20547;-56
2023/08/02 09:50:33;;;;;;;12.00;9.65;;;;;;;31.32;47.86;97590.09;5111737;27;20269;-59
2023/08/02 09:53:14;;;;;;;10.10;9.20;;;;;;;31.48;47.56;97581.13;5111534;28;20179;-57
2023/08/02 09:55:42;;;;;;;10.23;8.82;;;;;;;31.44;47.29;97552.47;5111726;28;20182;-56
2023/08/02 09:58:08;;;;;;;10.25;9.23;;;;;;;31.75;47.21;97571.16;5111650;28;20552;-56
2023/08/02 10:00:33;;;;;;;12.15;8.27;;;;;;;31.96;45.53;97575.56;5111590;28;20171;-56
2023/08/02 10:02:59;;;;;;;12.55;9.05;;;;;;;31.87;44.63;97547.66;5111580;28;20710;-56
2023/08/02 10:05:25;;;;;;;9.52;8.57;;;;;;;31.89;44.82;97547.41;5111293;28;20182;-56
2023/08/02 10:07:53;;;;;;;9.93;8.93;;;;;;;32.00;44.61;97547.19;5111554;28;20306;-56
2023/08/02 10:10:23;;;;;;;10.00;9.02;;;;;;;32.09;45.42;97561.69;5111440;28;20175;-56
2023/08/02 10:12:55;;;;;;;10.27;8.82;;;;;;;32.16;45.05;97550.72;5111403;28;20650;-57
2023/08/02 10:15:21;;;;;;;12.60;9.02;;;;;;;32.23;44.74;97548.63;5110779;28;20207;-56
2023/08/02 10:17:48;;;;;;;12.48;8.77;;;;;;;32.39;44.61;97556.47;5108746;28;20206;-56
2023/08/02 10:20:15;;;;;;;11.57;8.55;;;;;;;32.51;44.59;97557.03;5108811;28;20190;-56
2023/08/02 10:22:41;;;;;;;11.98;9.20;;;;;;;32.42;44.82;97539.06;5108670;28;20191;-57
2023/08/02 10:25:07;;;;;;;9.90;8.93;;;;;;;32.60;44.51;97550.09;5108780;28;20731;-56
2023/08/02 10:27:34;;;;;;;11.60;9.05;;;;;;;32.68;43.57;97544.19;5108719;28;20190;-56
2023/08/02 10:30:01;;;;;;;10.18;9.15;;;;;;;32.75;43.03;97547.41;5109061;28;20187;-57
2023/08/02 10:32:26;;;;;;;12.27;9.07;;;;;;;32.66;42.60;97516.88;5108655;28;20187;-57
2023/08/02 10:34:52;;;;;;;9.30;8.40;;;;;;;32.71;43.03;97522.22;5108646;28;20202;-56
2023/08/02 10:37:20;;;;;;;9.75;8.15;;;;;;;32.98;42.58;97540.78;5108555;28;20191;-56
2023/08/02 10:39:45;;;;;;;9.10;7.97;;;;;;;33.12;42.29;97548.03;5108610;28;20187;-57
2023/08/02 10:42:12;;;;;;;10.95;8.60;;;;;;;33.02;41.51;97505.13;5108664;28;20205;-56
2023/08/02 10:44:37;;;;;;;12.30;8.52;;;;;;;33.23;42.08;97528.16;5108586;28;20179;-57
2023/08/02 10:47:25;;;;;;;9.93;8.32;;;;;;;33.40;42.64;97525.22;5108599;28;20207;-56
2023/08/02 10:49:51;;;;;;;8.70;7.97;;;;;;;33.62;41.46;97517.66;5110526;28;20195;-57
2023/08/02 10:52:32;;;;;;;8.05;7.35;;;;;;;33.81;41.24;97503.38;5110986;28;20163;-57
2023/08/02 10:55:03;;;;;;;10.65;8.65;;;;;;;34.17;39.75;97518.28;5110861;28;20679;-56
2023/08/02 10:57:29;;;;;;;10.65;7.38;;;;;;;34.29;38.22;97491.91;5111018;28;20175;-57
2023/08/02 10:59:55;;;;;;;9.50;7.47;;;;;;;34.45;38.21;97503.38;5110986;28;20171;-57
2023/08/02 11:02:20;;;;;;;13.38;9.10;;;;;;;34.70;37.01;97517.44;5110994;28;20545;-57
2023/08/02 11:04:47;;;;;;;8.35;7.45;;;;;;;34.84;36.43;97520.31;5110929;28;20171;-57
2023/08/02 11:07:14;;;;;;;7.95;6.15;;;;;;;34.89;35.20;97525.66;5110955;28;20198;-57
2023/08/02 11:09:40;;;;;;;7.22;6.65;;;;;;;34.83;34.71;97508.75;5110894;28;20567;-57
2023/08/02 11:12:09;;;;;;;9.48;6.68;;;;;;;34.81;34.71;97516.31;5110842;28;20183;-56
2023/08/02 11:14:36;;;;;;;7.90;6.55;;;;;;;34.64;34.94;97483.63;5110764;28;20214;-57
2023/08/02 11:17:02;;;;;;;7.43;6.80;;;;;;;34.92;36.17;97496.31;5108162;28;20179;-56
2023/08/02 11:19:29;;;;;;;16.67;7.13;;;;;;;35.17;36.00;97498.78;5087738;28;20202;-57
2023/08/02 11:21:56;;;;;;;7.78;6.97;;;;;;;35.45;34.09;97506.09;5087901;28;20276;-57